CheckWX is a tool to help pilots better visualize weather data.  It is not intended as a substitute for an official pre-flight weather briefing.

22:29:31 UTC

LQTZ METAR
Tuzla International Airport
Tuzla, Bosnia and Herzegovina
Current

30 mins ago

LQTZ 192200Z VRB02KT CAVOK 08/07 Q1018
Observed
Oct-19 @ 22:00 UTC
Wind
  • Variable at 2 KTS
Visibility
10,000+ meters
Flight Rules
VFR
Cloud Levels
  • Clear skies
Temperature
C / 46°F
Dewpoint
C / 45°F
Humidity
93%
Altimeter
30.06" Hg
Pressure
1017.92 hPa
Previous

60 mins ago

LQTZ 192130Z VRB01KT CAVOK 09/08 Q1018
Observed
Oct-19 @ 21:30 UTC
Wind
  • Variable at 1 KTS
Visibility
10,000+ meters
Flight Rules
VFR
Cloud Levels
  • Clear skies
Temperature
C / 48°F
Dewpoint
C / 46°F
Humidity
94%
Altimeter
30.06" Hg
Pressure
1017.92 hPa
Previous

1 hour ago

LQTZ 192100Z VRB02KT CAVOK 10/09 Q1018
Observed
Oct-19 @ 21:00 UTC
Wind
  • Variable at 2 KTS
Visibility
10,000+ meters
Flight Rules
VFR
Cloud Levels
  • Clear skies
Temperature
10°C / 50°F
Dewpoint
C / 48°F
Humidity
94%
Altimeter
30.06" Hg
Pressure
1017.92 hPa